Time;durP1;ratioP1;P1;durP2;ratioP2;P2;SDS_P1;SDS_P2;PMS_P1;PMS_P2;Temp;Humidity;BMP_temperature;BMP_pressure;BME280_temperature;BME280_humidity;BME280_pressure;Samples;Min_cycle;Max_cycle;Signal;HPM_P1;HPM_P2
2023/05/16 00:00:09;;;;;;;;;5.00;4.33;;;;;12.73;58.74;101565.28;4975342;28;46564;-74
2023/05/16 00:02:36;;;;;;;;;5.67;5.33;;;;;12.90;58.89;101602.22;4975347;28;45695;-77
2023/05/16 00:05:03;;;;;;;;;2.67;2.67;;;;;13.01;59.39;101618.06;4975165;28;45439;-74
2023/05/16 00:07:30;;;;;;;;;4.33;3.00;;;;;12.75;59.38;101594.22;4974736;28;45527;-74
2023/05/16 00:09:56;;;;;;;;;8.00;3.33;;;;;12.75;59.29;101595.09;4975722;28;45562;-74
2023/05/16 00:12:21;;;;;;;;;5.00;3.00;;;;;12.82;58.77;101610.06;4975240;28;45374;-74
2023/05/16 00:14:49;;;;;;;;;8.33;4.00;;;;;12.89;59.04;101625.00;4976218;28;45302;-75
2023/05/16 00:17:16;;;;;;;;;5.67;5.00;;;;;12.72;59.33;101595.97;4979831;28;45459;-74
2023/05/16 00:19:43;;;;;;;;;7.67;4.00;;;;;12.70;58.93;101618.72;4979587;28;45733;-73
2023/05/16 00:22:12;;;;;;;;;8.67;4.00;;;;;12.62;58.82;101609.88;4979857;28;45447;-73
2023/05/16 00:24:38;;;;;;;;;4.67;4.67;;;;;12.53;59.16;101607.22;4976497;28;45623;-74
2023/05/16 00:27:04;;;;;;;;;5.33;3.67;;;;;12.67;59.43;101629.22;4975612;28;45681;-72
2023/05/16 00:29:33;;;;;;;;;3.00;3.00;;;;;12.52;59.68;101602.81;4975608;28;45768;-77
2023/05/16 00:31:59;;;;;;;;;5.00;3.00;;;;;12.52;59.53;101603.69;4976953;28;45455;-75
2023/05/16 00:34:25;;;;;;;;;7.00;4.33;;;;;12.41;59.47;101589.59;4979770;28;45749;-75
2023/05/16 00:36:51;;;;;;;;;5.00;3.00;;;;;12.60;59.67;101616.91;4977362;28;45442;-75
2023/05/16 00:39:16;;;;;;;;;3.33;3.33;;;;;12.63;59.41;101619.56;4973371;28;47586;-74
2023/05/16 00:41:43;;;;;;;;;5.00;5.00;;;;;12.61;59.13;101625.66;4974916;28;45369;-73
2023/05/16 00:44:09;;;;;;;;;3.00;3.00;;;;;12.59;58.92;101630.03;4978857;28;45594;-72
2023/05/16 00:46:35;;;;;;;;;6.00;5.00;;;;;11.90;59.50;101514.75;4974141;28;45396;-72
2023/05/16 00:49:00;;;;;;;;;6.33;3.33;;;;;12.53;59.52;101625.63;4974383;28;45478;-72
2023/05/16 00:51:30;;;;;;;;;5.33;3.67;;;;;12.28;59.50;101588.59;4970079;28;44862;-73
2023/05/16 00:53:56;;;;;;;;;7.00;3.00;;;;;12.13;59.69;101569.22;4958889;28;46176;-73
2023/05/16 00:56:22;;;;;;;;;5.33;4.33;;;;;12.28;59.57;101593.00;4959923;28;45469;-73
2023/05/16 00:58:48;;;;;;;;;3.00;2.00;;;;;12.34;59.33;101597.41;4957844;28;46152;-73
2023/05/16 01:01:14;;;;;;;;;3.00;2.67;;;;;12.43;59.99;101629.91;4955559;28;45303;-73
2023/05/16 01:03:44;;;;;;;;;4.00;2.67;;;;;12.20;59.95;101585.06;4957436;28;45539;-73
2023/05/16 01:06:11;;;;;;;;;3.67;3.00;;;;;11.93;59.88;101551.53;4960182;28;45504;-75
2023/05/16 01:08:36;;;;;;;;;7.00;3.33;;;;;12.15;59.44;101584.13;4955031;28;46504;-72
2023/05/16 01:11:23;;;;;;;;;4.00;3.00;;;;;12.34;59.80;101624.56;4953256;28;45556;-72
2023/05/16 01:14:21;;;;;;;;;6.00;3.00;;;;;12.33;59.28;101622.78;4943381;28;45480;-74
2023/05/16 01:16:56;;;;;;;;;6.33;3.00;;;;;12.33;59.67;101624.56;4955102;28;45425;-74
2023/05/16 01:20:05;;;;;;;;;5.00;2.33;;;;;12.28;59.31;101619.25;4954735;28;46840;-72
2023/05/16 01:23:03;;;;;;;;;4.00;3.00;;;;;12.22;59.41;101609.59;4958295;28;45338;-73
2023/05/16 01:25:46;;;;;;;;;6.00;3.00;;;;;12.24;59.68;101618.38;4959701;28;45525;-74
2023/05/16 01:28:16;;;;;;;;;5.00;3.00;;;;;11.98;59.95;101576.09;4953507;28;45266;-75
2023/05/16 01:30:42;;;;;;;;;6.67;4.00;;;;;11.87;59.43;101573.34;4955959;28;47845;-73
2023/05/16 01:33:08;;;;;;;;;5.67;2.67;;;;;12.19;59.68;101627.91;4955306;28;45654;-74
2023/05/16 01:35:46;;;;;;;;;4.00;2.00;;;;;12.17;59.57;101632.31;4954239;28;45505;-73
2023/05/16 01:38:29;;;;;;;;;5.00;2.00;;;;;12.18;59.76;101630.56;4957098;28;45402;-73
2023/05/16 01:41:03;;;;;;;;;4.00;3.00;;;;;12.13;59.59;101614.75;4956964;28;45480;-73
2023/05/16 01:43:34;;;;;;;;;3.33;2.00;;;;;12.09;59.12;101612.94;4954878;28;45525;-73
2023/05/16 01:46:09;;;;;;;;;3.00;3.00;;;;;12.15;59.68;101628.78;4954305;28;45360;-73
2023/05/16 01:48:43;;;;;;;;;7.33;3.67;;;;;12.14;59.60;101634.88;4957300;28;45201;-73
2023/05/16 01:51:11;;;;;;;;;3.67;2.00;;;;;12.07;59.01;101620.78;4955981;28;46155;-73
2023/05/16 01:53:38;;;;;;;;;7.00;4.00;;;;;11.99;59.19;101608.47;4973245;28;45773;-73
2023/05/16 01:56:10;;;;;;;;;2.33;2.00;;;;;12.04;59.63;101622.53;4976960;28;45527;-73
2023/05/16 01:58:36;;;;;;;;;3.00;2.67;;;;;11.90;59.70;101609.25;4975632;28;45453;-73
2023/05/16 02:01:04;;;;;;;;;2.33;2.33;;;;;12.07;59.65;101644.44;4972214;28;45503;-73
2023/05/16 02:03:31;;;;;;;;;3.00;3.00;;;;;11.94;59.96;101621.56;4973010;28;45528;-73
2023/05/16 02:05:57;;;;;;;;;3.33;3.33;;;;;12.02;59.59;101651.38;4973027;28;45434;-74
2023/05/16 02:08:25;;;;;;;;;5.00;2.00;;;;;11.92;59.61;101635.53;4975118;28;45638;-73
2023/05/16 02:10:51;;;;;;;;;5.67;4.00;;;;;11.88;59.80;101630.22;4979266;28;46311;-73
2023/05/16 02:13:17;;;;;;;;;2.00;2.00;;;;;11.88;59.60;101638.09;4977712;28;45479;-73
2023/05/16 02:15:43;;;;;;;;;3.67;2.33;;;;;11.90;59.48;101645.13;4976232;28;45519;-73
2023/05/16 02:18:09;;;;;;;;;4.00;2.67;;;;;11.80;59.74;101628.38;4977103;28;45359;-73
2023/05/16 02:20:34;;;;;;;;;4.00;2.33;;;;;11.79;59.57;101626.59;4974830;28;46506;-73
2023/05/16 02:23:02;;;;;;;;;2.33;2.33;;;;;11.82;59.83;101634.53;4976664;28;45424;-73
2023/05/16 02:25:28;;;;;;;;;3.00;3.00;;;;;11.86;59.25;101645.06;4976660;28;45720;-74
2023/05/16 02:27:55;;;;;;;;;3.00;2.00;;;;;11.83;59.90;101642.41;4976672;28;45620;-73
2023/05/16 02:30:21;;;;;;;;;2.00;2.00;;;;;11.84;59.81;101653.75;4975878;28;46452;-72
2023/05/16 02:32:47;;;;;;;;;4.33;2.67;;;;;11.78;59.66;101636.22;4976832;28;45574;-71
2023/05/16 02:35:14;;;;;;;;;1.33;1.00;;;;;11.80;59.99;101641.50;4981130;28;45523;-73
2023/05/16 02:37:41;;;;;;;;;4.00;2.00;;;;;11.79;59.89;101647.59;4928965;28;1429226;-73
2023/05/16 02:40:07;;;;;;;;;3.00;3.00;;;;;11.66;60.02;101622.97;4977672;28;46413;-74
2023/05/16 02:42:33;;;;;;;;;8.00;2.00;;;;;11.70;59.75;101640.50;4978780;28;45492;-72
2023/05/16 02:44:59;;;;;;;;;1.00;1.00;;;;;11.66;59.83;101633.44;4979903;28;45293;-74
2023/05/16 02:47:28;;;;;;;;;6.00;2.00;;;;;11.66;60.19;101636.94;4981263;28;45520;-71
2023/05/16 02:49:53;;;;;;;;;4.33;2.00;;;;;11.74;60.27;101650.16;4979650;28;45626;-74
2023/05/16 02:52:19;;;;;;;;;4.33;2.67;;;;;11.75;59.98;101653.69;4967269;28;45413;-74
2023/05/16 02:54:45;;;;;;;;;4.00;3.00;;;;;11.75;59.79;101649.31;4958374;28;45807;-73
2023/05/16 02:57:13;;;;;;;;;5.00;2.67;;;;;11.55;59.88;101621.94;4956614;28;45370;-72
2023/05/16 02:59:40;;;;;;;;;3.00;3.00;;;;;11.58;60.06;101619.34;4957500;28;45496;-75
2023/05/16 03:02:06;;;;;;;;;2.33;2.33;;;;;11.62;60.07;101642.16;4957054;28;45531;-74
2023/05/16 03:04:31;;;;;;;;;2.67;2.67;;;;;11.67;60.21;101662.34;4957425;28;45403;-72
2023/05/16 03:06:58;;;;;;;;;4.00;2.00;;;;;11.71;59.78;101659.75;4960185;28;45358;-73
2023/05/16 03:09:23;;;;;;;;;2.00;2.00;;;;;11.66;59.76;101654.44;4961663;28;46328;-73
2023/05/16 03:11:49;;;;;;;;;2.00;1.33;;;;;11.57;59.96;101641.22;4957750;28;45480;-73
2023/05/16 03:14:14;;;;;;;;;1.33;1.00;;;;;11.65;60.25;101657.91;4957599;28;45590;-73
2023/05/16 03:16:42;;;;;;;;;4.00;4.00;;;;;11.54;60.28;101647.31;4957526;28;45991;-73
2023/05/16 03:19:09;;;;;;;;;3.25;3.25;;;;;11.66;60.04;101667.56;4958844;28;45310;-73
2023/05/16 03:21:35;;;;;;;;;4.00;2.33;;;;;11.61;60.48;101661.38;4961054;28;45559;-74
2023/05/16 03:24:04;;;;;;;;;2.00;2.00;;;;;11.53;59.98;101649.91;4961479;28;45369;-73
2023/05/16 03:26:29;;;;;;;;;2.00;2.00;;;;;11.60;59.82;101675.34;4957479;28;45732;-73
2023/05/16 03:28:56;;;;;;;;;3.67;1.00;;;;;11.48;59.55;101647.22;4957283;28;46440;-73
2023/05/16 03:31:21;;;;;;;;;0.00;0.00;;;;;11.35;59.81;101632.19;4957431;28;45370;-73
2023/05/16 03:33:47;;;;;;;;;3.00;0.67;;;;;11.60;59.91;101685.84;4956904;28;45773;-74
2023/05/16 03:36:13;;;;;;;;;4.33;3.00;;;;;11.42;60.61;101660.28;4957073;28;45438;-72
2023/05/16 03:38:43;;;;;;;;;1.33;1.00;;;;;11.58;60.01;101690.19;4956850;28;45916;-72
2023/05/16 03:41:14;;;;;;;;;3.33;2.00;;;;;11.35;59.73;101650.56;4954661;28;45523;-74
2023/05/16 03:43:43;;;;;;;;;2.00;2.00;;;;;11.58;59.83;101695.44;4957787;28;45454;-74
2023/05/16 03:46:09;;;;;;;;;5.00;1.67;;;;;11.47;60.42;101682.19;4960966;28;45458;-73
2023/05/16 03:48:35;;;;;;;;;2.67;2.00;;;;;11.56;60.55;101695.44;4957879;28;45604;-72
2023/05/16 03:51:00;;;;;;;;;4.67;2.00;;;;;11.57;60.24;101698.94;4958300;28;45316;-74
2023/05/16 03:53:27;;;;;;;;;3.00;3.00;;;;;11.49;60.23;101693.59;4976421;28;45805;-73
2023/05/16 03:55:52;;;;;;;;;3.00;2.33;;;;;11.30;59.63;101662.72;4976089;28;45341;-72
2023/05/16 03:58:18;;;;;;;;;3.00;2.00;;;;;11.38;59.98;101682.94;4976613;28;46309;-73
2023/05/16 04:00:45;;;;;;;;;3.25;3.25;;;;;11.33;60.32;101678.50;4978118;28;45361;-72
2023/05/16 04:03:12;;;;;;;;;5.25;4.25;;;;;11.30;60.31;101668.84;4976367;28;45463;-72
2023/05/16 04:05:37;;;;;;;;;9.00;3.25;;;;;11.55;60.43;101709.41;4979148;28;45358;-74
2023/05/16 04:08:03;;;;;;;;;4.00;2.00;;;;;11.54;60.16;101719.91;4978900;28;46206;-72
2023/05/16 04:10:28;;;;;;;;;1.33;1.33;;;;;11.55;59.88;101721.63;4976075;28;45515;-73
2023/05/16 04:12:54;;;;;;;;;3.00;1.67;;;;;11.39;60.39;101687.34;4976354;28;45977;-73
2023/05/16 04:15:19;;;;;;;;;4.50;3.00;;;;;11.41;60.13;101698.75;4974558;28;45977;-73
2023/05/16 04:17:45;;;;;;;;;5.00;4.00;;;;;11.38;60.40;101700.44;4975064;28;45443;-73
2023/05/16 04:20:13;;;;;;;;;3.50;2.75;;;;;11.35;60.18;101701.25;4975426;28;45687;-73
2023/05/16 04:22:43;;;;;;;;;9.00;2.67;;;;;11.52;60.47;101729.47;4975783;28;45751;-73
2023/05/16 04:25:10;;;;;;;;;4.00;2.00;;;;;11.39;60.43;101705.69;4975589;28;45732;-73
2023/05/16 04:27:35;;;;;;;;;4.00;3.00;;;;;11.51;60.63;101722.44;4976834;28;45710;-73
2023/05/16 04:30:01;;;;;;;;;4.00;3.00;;;;;11.52;60.35;101724.22;4977007;28;45444;-72
2023/05/16 04:32:27;;;;;;;;;3.00;3.00;;;;;11.35;60.59;101690.78;4974526;28;45412;-72
2023/05/16 04:34:53;;;;;;;;;3.67;1.00;;;;;11.56;60.04;101723.44;4975530;28;45536;-72
2023/05/16 04:37:19;;;;;;;;;2.00;2.00;;;;;11.43;60.00;101710.09;4974220;28;45478;-74
2023/05/16 04:39:45;;;;;;;;;6.00;3.00;;;;;11.54;60.47;101718.16;4973939;28;45556;-72
2023/05/16 04:42:11;;;;;;;;;2.67;2.67;;;;;11.37;60.25;101690.81;4976654;28;45526;-73
2023/05/16 04:44:37;;;;;;;;;5.67;2.33;;;;;11.64;60.41;101737.50;4979444;28;45360;-73
2023/05/16 04:47:02;;;;;;;;;3.00;2.67;;;;;11.62;59.73;101724.34;4979035;28;46275;-73
2023/05/16 04:49:28;;;;;;;;;6.75;3.25;;;;;11.66;60.08;101736.66;4975457;28;45837;-74
2023/05/16 04:51:54;;;;;;;;;2.00;2.00;;;;;11.75;60.03;101745.56;4966290;28;45671;-73
2023/05/16 04:54:19;;;;;;;;;2.33;2.33;;;;;11.80;59.71;101749.09;4959383;28;45305;-72
2023/05/16 04:56:45;;;;;;;;;6.00;4.67;;;;;11.81;59.53;101737.72;4955410;28;45499;-72
2023/05/16 04:59:14;;;;;;;;;4.00;2.00;;;;;11.87;59.24;101749.22;4955218;28;45491;-73
2023/05/16 05:01:46;;;;;;;;;2.00;2.00;;;;;11.66;58.65;101714.81;4955105;28;45725;-73
2023/05/16 05:04:14;;;;;;;;;4.00;3.00;;;;;11.93;59.22;101752.78;4953957;28;45385;-73
2023/05/16 05:06:40;;;;;;;;;6.00;2.00;;;;;11.96;59.10;101752.81;4959679;28;46173;-73
2023/05/16 05:09:06;;;;;;;;;3.00;3.00;;;;;11.99;59.00;101760.75;4959683;28;45446;-73
2023/05/16 05:11:32;;;;;;;;;3.00;2.33;;;;;12.06;59.00;101767.84;4955658;28;45450;-72
2023/05/16 05:13:58;;;;;;;;;3.33;3.33;;;;;12.12;58.69;101757.41;4955856;28;45734;-72
2023/05/16 05:16:23;;;;;;;;;3.67;3.00;;;;;12.11;58.62;101758.28;4955128;28;46070;-72
2023/05/16 05:18:49;;;;;;;;;4.25;3.75;;;;;12.22;58.13;101756.66;4954381;28;45400;-73
2023/05/16 05:21:15;;;;;;;;;3.00;2.33;;;;;12.20;58.16;101753.13;4959621;28;45536;-72
2023/05/16 05:23:43;;;;;;;;;6.00;3.00;;;;;12.15;57.96;101741.72;4956938;28;45390;-73
2023/05/16 05:26:09;;;;;;;;;5.00;3.00;;;;;12.22;58.07;101738.28;4954453;28;45429;-74
2023/05/16 05:28:36;;;;;;;;;4.67;2.33;;;;;12.47;57.78;101763.06;4955316;28;45403;-73
2023/05/16 05:31:04;;;;;;;;;7.00;2.00;;;;;12.54;57.90;101765.75;4953698;28;45653;-72
2023/05/16 05:33:29;;;;;;;;;4.00;4.00;;;;;12.51;57.61;101758.72;4958995;28;45390;-73
2023/05/16 05:35:56;;;;;;;;;5.67;3.00;;;;;12.45;57.23;101740.25;4954375;28;46193;-72
2023/05/16 05:38:21;;;;;;;;;6.33;3.00;;;;;12.59;56.66;101756.16;4954772;28;45398;-72
2023/05/16 05:40:50;;;;;;;;;2.67;2.33;;;;;12.52;57.18;101724.56;4956093;28;45569;-72
2023/05/16 05:43:16;;;;;;;;;5.67;2.00;;;;;12.70;56.61;101751.91;4957742;28;45487;-72
2023/05/16 05:45:43;;;;;;;;;4.00;3.33;;;;;12.72;56.83;101737.03;4954556;28;46776;-73
2023/05/16 05:48:09;;;;;;;;;3.00;2.67;;;;;12.93;56.64;101776.66;4954866;28;45363;-72
2023/05/16 05:50:35;;;;;;;;;6.00;2.00;;;;;13.00;56.01;101769.69;4955124;28;45600;-72
2023/05/16 05:53:01;;;;;;;;;8.00;4.67;;;;;13.04;56.09;101771.47;4972428;28;45414;-72
2023/05/16 05:55:29;;;;;;;;;4.00;3.33;;;;;13.16;55.36;101782.09;4974163;28;45507;-72
2023/05/16 05:57:58;;;;;;;;;5.00;2.33;;;;;13.04;55.75;101739.91;4976997;28;45362;-73
2023/05/16 06:00:24;;;;;;;;;7.67;3.00;;;;;13.80;54.26;101767.63;4978299;28;45238;-73
2023/05/16 06:02:49;;;;;;;;;2.00;2.00;;;;;14.08;53.40;101771.28;4978539;28;45320;-72
2023/05/16 06:05:15;;;;;;;;;4.67;4.00;;;;;13.97;53.00;101776.50;4976809;28;45645;-73
2023/05/16 06:07:41;;;;;;;;;4.67;3.00;;;;;13.81;53.61;101769.41;4974213;28;45408;-74
2023/05/16 06:10:07;;;;;;;;;4.33;3.00;;;;;13.81;53.04;101777.31;4973889;28;45459;-72
2023/05/16 06:12:33;;;;;;;;;2.33;2.33;;;;;13.52;52.78;101733.25;4974146;28;45560;-72
2023/05/16 06:14:58;;;;;;;;;2.00;2.00;;;;;13.90;52.67;101792.25;4973830;28;46106;-75
2023/05/16 06:17:24;;;;;;;;;3.00;2.33;;;;;13.69;52.48;101753.53;4974002;28;45593;-73
2023/05/16 06:19:50;;;;;;;;;3.67;2.00;;;;;13.84;52.10;101772.06;4974564;28;45395;-73
2023/05/16 06:22:15;;;;;;;;;2.67;1.00;;;;;13.78;52.06;101754.47;4974712;28;45558;-72
2023/05/16 06:24:42;;;;;;;;;4.00;2.00;;;;;13.73;51.90;101748.28;4976418;28;45521;-74
2023/05/16 06:27:07;;;;;;;;;6.00;2.00;;;;;13.94;52.17;101765.97;4976823;28;45535;-73
2023/05/16 06:29:33;;;;;;;;;3.00;3.00;;;;;13.93;51.02;101752.81;4977630;28;45586;-72
2023/05/16 06:31:58;;;;;;;;;6.00;2.67;;;;;14.17;50.83;101796.81;4977831;28;45334;-75
2023/05/16 06:34:27;;;;;;;;;6.00;2.00;;;;;14.18;51.04;101799.41;4977713;28;46556;-73
2023/05/16 06:37:02;;;;;;;;;3.00;3.00;;;;;14.03;51.03;101798.50;4975664;28;46104;-72
2023/05/16 06:39:28;;;;;;;;;5.33;4.67;;;;;13.99;50.67;101792.31;4974057;28;45491;-72
2023/05/16 06:41:57;;;;;;;;;3.00;2.00;;;;;14.05;51.46;101802.00;4977411;28;45362;-72
2023/05/16 06:44:23;;;;;;;;;2.00;2.00;;;;;14.09;51.02;101803.78;4977975;28;45590;-73
2023/05/16 06:46:49;;;;;;;;;5.00;4.33;;;;;14.16;51.07;101792.38;4977859;28;45501;-73
2023/05/16 06:49:15;;;;;;;;;2.00;2.00;;;;;14.24;50.58;101805.59;4978089;28;45375;-73
2023/05/16 06:51:43;;;;;;;;;2.33;2.33;;;;;14.31;50.92;101795.09;4968805;28;45352;-73
2023/05/16 06:54:09;;;;;;;;;3.00;2.00;;;;;14.50;50.63;101805.66;4953915;28;45409;-72
2023/05/16 06:56:35;;;;;;;;;7.33;2.33;;;;;14.46;50.27;101786.34;4954672;28;45398;-72
2023/05/16 06:59:00;;;;;;;;;3.67;3.00;;;;;14.70;50.21;101814.56;4957574;28;45405;-72
2023/05/16 07:01:30;;;;;;;;;2.00;0.67;;;;;14.72;49.59;101793.47;4961692;28;45337;-72
2023/05/16 07:03:59;;;;;;;;;2.67;2.00;;;;;14.87;49.29;101797.88;4961301;28;45999;-72
2023/05/16 07:06:25;;;;;;;;;2.33;2.00;;;;;14.93;48.98;101797.91;4958928;28;45310;-73
2023/05/16 07:08:51;;;;;;;;;5.33;3.67;;;;;14.95;48.62;101785.56;4957458;28;45607;-72
2023/05/16 07:11:16;;;;;;;;;3.33;3.00;;;;;15.05;48.53;101805.81;4960702;28;45338;-72
2023/05/16 07:13:42;;;;;;;;;4.33;3.00;;;;;15.07;48.50;101804.06;4957204;28;47134;-73
2023/05/16 07:16:07;;;;;;;;;4.33;3.00;;;;;15.10;48.61;101800.56;4957158;28;45619;-72
2023/05/16 07:18:33;;;;;;;;;3.33;2.00;;;;;15.23;48.67;101808.47;4957319;28;45436;-74
2023/05/16 07:20:59;;;;;;;;;4.67;3.00;;;;;15.30;48.23;101806.69;4957571;28;45568;-73
2023/05/16 07:23:25;;;;;;;;;5.33;2.33;;;;;15.27;48.21;101796.13;4957919;28;46656;-73
2023/05/16 07:25:52;;;;;;;;;6.33;3.00;;;;;15.39;48.03;101825.16;4957518;28;45836;-73
2023/05/16 07:28:17;;;;;;;;;4.00;2.33;;;;;15.50;47.99;101830.44;4961595;28;45556;-72
2023/05/16 07:30:43;;;;;;;;;2.00;2.00;;;;;15.45;47.89;101808.47;4960134;28;45632;-73
2023/05/16 07:33:08;;;;;;;;;2.00;2.00;;;;;15.55;47.73;101831.31;4959687;28;47535;-72
2023/05/16 07:35:34;;;;;;;;;1.00;1.00;;;;;15.40;47.97;101816.38;4961454;28;45402;-74
2023/05/16 07:37:59;;;;;;;;;5.00;1.33;;;;;15.36;47.86;101804.06;4958600;28;45473;-72
2023/05/16 07:40:28;;;;;;;;;2.00;2.00;;;;;15.37;47.55;101792.59;4957969;28;45345;-73
2023/05/16 07:42:53;;;;;;;;;4.67;2.33;;;;;15.73;47.28;101821.63;4960271;28;47321;-74
2023/05/16 07:45:19;;;;;;;;;3.00;3.00;;;;;15.85;46.84;101826.88;4960034;28;45362;-73
2023/05/16 07:47:45;;;;;;;;;3.67;1.67;;;;;15.79;47.16;101822.50;4956099;28;45397;-74
2023/05/16 07:50:10;;;;;;;;;9.00;3.33;;;;;15.56;46.86;101804.03;4959917;28;45859;-74
2023/05/16 07:52:36;;;;;;;;;1.00;1.00;;;;;15.47;47.26;101827.78;4975355;28;45863;-73
2023/05/16 07:55:02;;;;;;;;;5.33;2.33;;;;;15.39;46.76;101813.72;4978583;28;45420;-73
2023/05/16 07:57:28;;;;;;;;;4.33;2.33;;;;;15.47;47.26;101839.25;4975677;28;45757;-72
2023/05/16 07:59:54;;;;;;;;;3.00;3.00;;;;;15.50;46.86;101817.25;4976791;28;45319;-73
2023/05/16 08:02:23;;;;;;;;;2.67;1.00;;;;;15.26;47.79;101818.16;4975188;28;46508;-73
2023/05/16 08:04:49;;;;;;;;;2.67;2.67;;;;;15.21;47.23;101806.69;4975937;28;45487;-73
2023/05/16 08:07:15;;;;;;;;;3.00;2.00;;;;;15.06;47.45;101787.34;4973929;28;45408;-74
2023/05/16 08:09:40;;;;;;;;;5.33;2.00;;;;;15.32;48.21;101827.81;4961731;28;45500;-72
2023/05/16 08:12:07;;;;;;;;;2.33;2.00;;;;;15.42;47.00;101819.91;4956575;28;46423;-73
2023/05/16 08:14:33;;;;;;;;;5.00;2.67;;;;;15.50;47.25;101801.41;4956483;28;45304;-73
2023/05/16 08:16:59;;;;;;;;;2.00;2.00;;;;;15.54;46.59;101789.06;4960811;28;45473;-74
2023/05/16 08:19:25;;;;;;;;;7.33;3.67;;;;;15.77;46.72;101800.50;4959511;28;45350;-73
2023/05/16 08:21:51;;;;;;;;;4.00;4.00;;;;;15.90;46.60;101811.94;4959304;28;47043;-74
2023/05/16 08:24:16;;;;;;;;;10.00;9.00;;;;;15.83;46.16;101791.69;4958901;28;45512;-75
2023/05/16 08:26:42;;;;;;;;;7.00;4.00;;;;;16.03;45.59;101808.34;4957850;28;45477;-77
2023/05/16 08:29:08;;;;;;;;;3.00;3.00;;;;;15.97;45.56;101816.31;4954971;28;45643;-73
2023/05/16 08:31:34;;;;;;;;;4.67;2.67;;;;;15.85;45.50;101803.09;4956539;28;45530;-73
2023/05/16 08:34:00;;;;;;;;;4.00;3.00;;;;;15.90;45.50;101843.63;4959823;28;45424;-74
2023/05/16 08:36:27;;;;;;;;;3.33;2.00;;;;;15.48;46.10;101759.16;4959319;28;45492;-73
2023/05/16 08:38:53;;;;;;;;;4.00;2.33;;;;;15.72;45.30;101772.34;4959732;28;45297;-73
2023/05/16 08:41:20;;;;;;;;;2.00;2.00;;;;;15.94;44.83;101807.50;4955919;28;45744;-73
2023/05/16 08:43:46;;;;;;;;;3.00;1.00;;;;;15.79;45.53;101805.78;4955745;28;45678;-73
2023/05/16 08:46:13;;;;;;;;;1.33;1.33;;;;;15.84;46.46;101830.41;4960326;28;45357;-75
2023/05/16 08:48:45;;;;;;;;;3.00;2.00;;;;;15.67;47.62;101809.28;4956496;28;45574;-73
2023/05/16 08:51:12;;;;;;;;;6.00;3.00;;;;;15.84;48.20;101826.00;4955619;28;47244;-72
2023/05/16 08:53:44;;;;;;;;;4.33;3.00;;;;;16.15;46.16;101830.34;4979138;28;45428;-73
2023/05/16 08:56:11;;;;;;;;;2.00;2.00;;;;;15.92;45.75;101799.56;4979538;28;45548;-73
2023/05/16 08:58:38;;;;;;;;;1.33;1.33;;;;;15.98;44.75;101806.59;4977131;28;45487;-74
2023/05/16 09:01:07;;;;;;;;;4.00;1.67;;;;;16.11;44.00;101827.72;4973996;28;45599;-73
2023/05/16 09:03:35;;;;;;;;;5.67;2.00;;;;;16.00;43.53;101821.56;4978254;28;45460;-72
2023/05/16 09:06:03;;;;;;;;;1.00;1.00;;;;;16.13;43.53;101824.16;4979089;28;45439;-72
2023/05/16 09:08:30;;;;;;;;;3.33;1.33;;;;;16.35;42.96;101828.50;4978650;28;45533;-73
2023/05/16 09:10:56;;;;;;;;;2.67;1.33;;;;;16.56;42.56;101824.84;4975274;28;45380;-73
2023/05/16 09:13:23;;;;;;;;;2.00;2.00;;;;;16.61;42.65;101820.44;4976977;28;45479;-71
2023/05/16 09:16:13;;;;;;;;;3.67;2.00;;;;;16.65;41.83;101811.56;4979273;28;45487;-72
2023/05/16 09:18:43;;;;;;;;;2.00;2.00;;;;;16.72;41.80;101815.06;4978549;28;45466;-72
2023/05/16 09:21:14;;;;;;;;;3.00;3.00;;;;;16.77;41.94;101820.31;4956125;28;46992;-71
2023/05/16 09:23:43;;;;;;;;;2.00;2.00;;;;;16.83;41.67;101825.63;4955015;28;45327;-72
2023/05/16 09:26:08;;;;;;;;;4.67;2.67;;;;;16.61;42.15;101812.50;4955212;28;45330;-71
2023/05/16 09:28:38;;;;;;;;;4.00;2.00;;;;;16.54;41.82;101819.59;4955198;28;45839;-71
2023/05/16 09:31:03;;;;;;;;;2.33;1.67;;;;;16.53;45.42;101830.16;4955036;28;45541;-70
2023/05/16 09:33:29;;;;;;;;;2.67;2.00;;;;;16.68;48.17;101832.72;4957238;28;45570;-69
2023/05/16 09:35:59;;;;;;;;;1.00;1.00;;;;;16.63;45.73;101802.75;4955301;28;45493;-73
2023/05/16 09:38:26;;;;;;;;;1.00;1.00;;;;;16.69;41.90;101786.00;4954919;28;45728;-71
2023/05/16 09:40:58;;;;;;;;;1.33;1.33;;;;;16.77;43.64;101821.19;4953148;28;47269;-71
2023/05/16 09:43:26;;;;;;;;;4.33;2.67;;;;;16.90;44.09;101811.47;4955095;28;45408;-73
2023/05/16 09:45:52;;;;;;;;;9.00;7.67;;;;;16.70;42.25;101795.66;4953833;28;45939;-73
2023/05/16 09:48:19;;;;;;;;;6.33;4.00;;;;;16.89;44.91;101825.56;4953490;28;45728;-73
2023/05/16 09:50:53;;;;;;;;;4.00;2.00;;;;;16.93;42.99;101793.78;4954347;28;45576;-73
2023/05/16 09:53:30;;;;;;;;;3.00;3.00;;;;;17.13;42.69;101803.31;4975650;28;45459;-73
2023/05/16 09:56:04;;;;;;;;;4.00;2.00;;;;;17.37;41.65;101824.31;4973959;28;45448;-73
2023/05/16 09:58:31;;;;;;;;;4.00;2.00;;;;;17.29;39.87;101819.97;4976052;28;45380;-73
2023/05/16 10:00:58;;;;;;;;;2.00;2.00;;;;;17.31;40.53;101824.34;4976425;28;46185;-72
2023/05/16 10:03:25;;;;;;;;;3.00;1.00;;;;;16.85;39.18;101747.13;4974230;28;45664;-71
2023/05/16 10:05:52;;;;;;;;;3.67;0.00;;;;;17.17;39.66;101798.00;4976976;28;45515;-72
2023/05/16 10:08:23;;;;;;;;;1.00;1.00;;;;;17.35;38.96;101827.88;4974676;28;45412;-72
2023/05/16 10:10:55;;;;;;;;;3.00;1.00;;;;;17.44;40.58;101827.78;4972509;28;46785;-72
2023/05/16 10:13:29;;;;;;;;;3.67;2.00;;;;;17.52;39.66;101807.41;4974142;28;45418;-72
2023/05/16 10:15:59;;;;;;;;;3.00;1.33;;;;;17.62;40.43;101812.59;4976554;28;45439;-72
2023/05/16 10:18:31;;;;;;;;;3.00;2.00;;;;;17.59;40.19;101811.75;4977579;28;45254;-73
2023/05/16 10:21:20;;;;;;;;;3.00;3.00;;;;;17.54;39.35;101786.19;4973980;28;45739;-74
2023/05/16 10:23:47;;;;;;;;;2.00;1.00;;;;;17.59;40.06;101801.16;4975114;28;45408;-73
2023/05/16 10:26:16;;;;;;;;;2.00;2.00;;;;;17.58;40.51;101772.00;4975774;28;45518;-71
2023/05/16 10:28:42;;;;;;;;;3.00;2.33;;;;;17.62;40.31;101788.75;4974276;28;45572;-76
2023/05/16 10:31:10;;;;;;;;;3.33;3.00;;;;;17.90;40.33;101811.44;4976463;28;46770;-74
2023/05/16 10:33:36;;;;;;;;;4.33;4.00;;;;;18.01;40.34;101814.88;4977294;28;45768;-74
2023/05/16 10:36:04;;;;;;;;;1.00;1.00;;;;;17.98;39.84;101811.34;4977704;28;45488;-75
2023/05/16 10:38:30;;;;;;;;;17.00;14.00;;;;;17.83;40.05;101796.50;4976156;28;45679;-74
2023/05/16 10:40:59;;;;;;;;;8.33;6.00;;;;;17.95;40.45;101795.50;4975632;28;47698;-76
2023/05/16 10:43:29;;;;;;;;;5.33;4.00;;;;;18.30;41.49;101816.28;4977426;28;45674;-77
2023/05/16 10:45:57;;;;;;;;;5.00;3.00;;;;;18.34;39.92;101790.56;4981165;28;45419;-78
2023/05/16 10:48:49;;;;;;;;;2.00;2.00;;;;;18.26;40.12;101797.78;4980678;28;45337;-74
2023/05/16 10:51:37;;;;;;;;;2.00;2.00;;;;;18.43;40.67;101814.31;4977649;28;45948;-73
2023/05/16 10:54:13;;;;;;;;;3.67;3.00;;;;;18.55;40.48;101807.97;4957525;28;45542;-70
2023/05/16 10:56:40;;;;;;;;;5.33;3.00;;;;;18.62;40.03;101805.22;4958023;28;45414;-73
2023/05/16 10:59:27;;;;;;;;;3.00;3.00;;;;;18.51;41.55;101803.59;4957738;28;45679;-74
2023/05/16 11:01:55;;;;;;;;;8.33;4.00;;;;;18.44;39.75;101811.66;4957411;28;46691;-72
2023/05/16 11:04:20;;;;;;;;;3.33;3.00;;;;;18.35;40.04;101795.00;4955993;28;45586;-72
2023/05/16 11:06:52;;;;;;;;;1.00;1.00;;;;;18.54;40.72;101807.09;4957172;28;45500;-72
2023/05/16 11:09:21;;;;;;;;;4.67;4.67;;;;;18.72;38.58;101819.25;4958595;28;45575;-73
2023/05/16 11:12:01;;;;;;;;;5.67;5.00;;;;;18.80;40.17;101813.84;4959344;28;45504;-73
2023/05/16 11:14:50;;;;;;;;;5.00;5.00;;;;;18.89;38.16;101808.41;4957586;28;45495;-72
2023/05/16 11:17:26;;;;;;;;;5.67;5.67;;;;;18.75;36.45;101805.06;4959403;28;45514;-72
2023/05/16 11:19:59;;;;;;;;;3.33;2.00;;;;;18.38;37.85;101765.78;4960446;28;45688;-72
2023/05/16 11:22:28;;;;;;;;;4.33;4.00;;;;;18.24;38.43;101720.88;4956732;28;46523;-72
2023/05/16 11:24:57;;;;;;;;;7.00;5.00;;;;;18.76;38.34;101812.09;4959770;28;45421;-72
2023/05/16 11:27:33;;;;;;;;;3.67;3.33;;;;;18.75;38.70;101790.00;4956731;28;45871;-72